Time;durP1;ratioP1;P1;durP2;ratioP2;P2;SDS_P1;SDS_P2;PMS_P1;PMS_P2;Temp;Humidity;BMP_temperature;BMP_pressure;BME280_temperature;BME280_humidity;BME280_pressure;Samples;Min_cycle;Max_cycle;Signal;HPM_P1;HPM_P2
2021/09/23 00:00:58;;;;;;;;;12.00;11.50;;;;;;;;5041307;28;10341;-86
2021/09/23 00:03:55;;;;;;;;;12.50;9.75;;;;;;;;5028688;28;10405;-74
2021/09/23 00:06:23;;;;;;;;;13.50;11.75;;;;;;;;5043814;28;10360;-79
2021/09/23 00:08:52;;;;;;;;;13.75;12.00;;;;;;;;5044625;28;10426;-86
2021/09/23 00:11:19;;;;;;;;;8.75;8.75;;;;;;;;5043820;28;10284;-85
2021/09/23 00:13:47;;;;;;;;;14.00;12.00;;;;;;;;5044030;28;10316;-84
2021/09/23 00:16:14;;;;;;;;;12.50;12.00;;;;;;;;5044709;28;10317;-78
2021/09/23 00:18:42;;;;;;;;;12.50;12.50;;;;;;;;5043827;28;10542;-78
2021/09/23 00:21:10;;;;;;;;;11.00;10.25;;;;;;;;5044622;28;10387;-77
2021/09/23 00:23:37;;;;;;;;;15.00;13.50;;;;;;;;5042689;28;10318;-74
2021/09/23 00:26:06;;;;;;;;;10.25;10.25;;;;;;;;5043835;28;10490;-74
2021/09/23 00:28:33;;;;;;;;;16.75;13.00;;;;;;;;5043638;28;10580;-74
2021/09/23 00:31:00;;;;;;;;;14.00;12.75;;;;;;;;5043722;28;11077;-84
2021/09/23 00:33:28;;;;;;;;;9.75;9.75;;;;;;;;5044113;28;10553;-82
2021/09/23 00:35:55;;;;;;;;;11.50;11.50;;;;;;;;5038835;28;10501;-80
2021/09/23 00:38:22;;;;;;;;;12.50;10.25;;;;;;;;5045836;28;11206;-78
2021/09/23 00:40:50;;;;;;;;;15.00;11.50;;;;;;;;5042125;28;10603;-75
2021/09/23 00:43:18;;;;;;;;;10.75;10.75;;;;;;;;5045272;28;10555;-85
2021/09/23 00:45:46;;;;;;;;;10.25;8.25;;;;;;;;5041803;28;10675;-80
2021/09/23 00:48:13;;;;;;;;;12.00;10.75;;;;;;;;5043974;28;10691;-85
2021/09/23 00:50:41;;;;;;;;;13.00;13.00;;;;;;;;5025181;28;10632;-84
2021/09/23 00:53:08;;;;;;;;;12.50;10.50;;;;;;;;5031931;28;10690;-82
2021/09/23 00:55:36;;;;;;;;;12.25;12.25;;;;;;;;5023121;28;10976;-82
2021/09/23 00:58:03;;;;;;;;;13.00;11.50;;;;;;;;5043446;28;10801;-78
2021/09/23 01:00:32;;;;;;;;;13.00;13.00;;;;;;;;5042528;28;10624;-77
2021/09/23 01:02:59;;;;;;;;;9.75;9.75;;;;;;;;5043896;28;11052;-76
2021/09/23 01:05:29;;;;;;;;;16.25;11.75;;;;;;;;5038163;28;11049;-75
2021/09/23 01:07:57;;;;;;;;;11.50;11.50;;;;;;;;5037977;28;11809;-84
2021/09/23 01:10:24;;;;;;;;;9.00;9.00;;;;;;;;5031459;28;10797;-80
2021/09/23 01:12:51;;;;;;;;;14.50;12.50;;;;;;;;5041337;28;10772;-77
2021/09/23 01:15:19;;;;;;;;;13.75;11.75;;;;;;;;5025136;28;11034;-85
2021/09/23 01:17:48;;;;;;;;;13.00;13.00;;;;;;;;5044681;28;11085;-81
2021/09/23 01:20:17;;;;;;;;;14.25;13.25;;;;;;;;5043048;28;11885;-76
2021/09/23 01:22:46;;;;;;;;;15.00;15.00;;;;;;;;5043809;28;11476;-84
2021/09/23 01:25:15;;;;;;;;;13.50;13.50;;;;;;;;5043845;28;11462;-78
2021/09/23 01:27:42;;;;;;;;;14.25;14.25;;;;;;;;5043056;28;11263;-82
2021/09/23 01:30:11;;;;;;;;;13.25;13.25;;;;;;;;5030938;28;11554;-81
2021/09/23 01:32:38;;;;;;;;;14.50;14.50;;;;;;;;5042419;28;11565;-77
2021/09/23 01:35:07;;;;;;;;;16.00;16.00;;;;;;;;5039444;28;11471;-74
2021/09/23 01:37:35;;;;;;;;;12.25;12.25;;;;;;;;5026054;28;11465;-85
2021/09/23 01:40:05;;;;;;;;;15.50;15.50;;;;;;;;5043293;28;11444;-84
2021/09/23 01:42:32;;;;;;;;;12.00;12.00;;;;;;;;5040053;28;11448;-82
2021/09/23 01:45:01;;;;;;;;;12.00;12.00;;;;;;;;5042331;28;11453;-86
2021/09/23 01:47:28;;;;;;;;;11.75;11.75;;;;;;;;5043320;28;12170;-85
2021/09/23 01:49:55;;;;;;;;;13.50;12.25;;;;;;;;5041855;28;11555;-82
2021/09/23 01:52:23;;;;;;;;;12.75;11.75;;;;;;;;5040994;28;10994;-79
2021/09/23 01:54:50;;;;;;;;;10.75;10.75;;;;;;;;5040559;28;11031;-76
2021/09/23 01:57:19;;;;;;;;;11.75;11.75;;;;;;;;5042578;28;10782;-84
2021/09/23 01:59:46;;;;;;;;;9.25;9.25;;;;;;;;5044369;28;11010;-77
2021/09/23 02:02:14;;;;;;;;;10.50;9.25;;;;;;;;5046421;28;10650;-83
2021/09/23 02:04:41;;;;;;;;;12.25;10.75;;;;;;;;5046454;28;10856;-77
2021/09/23 02:07:08;;;;;;;;;8.50;8.50;;;;;;;;5045682;28;10961;-78
2021/09/23 02:09:36;;;;;;;;;11.00;11.00;;;;;;;;5044424;28;10703;-77
2021/09/23 02:12:03;;;;;;;;;14.50;11.75;;;;;;;;5046251;28;10705;-75
2021/09/23 02:14:32;;;;;;;;;9.50;9.50;;;;;;;;5047212;28;10785;-78
2021/09/23 02:16:59;;;;;;;;;9.00;9.00;;;;;;;;5046363;28;10697;-73
2021/09/23 02:19:26;;;;;;;;;12.75;11.50;;;;;;;;5045888;28;10689;-73
2021/09/23 02:21:54;;;;;;;;;9.50;9.50;;;;;;;;5046302;28;10827;-85
2021/09/23 02:24:21;;;;;;;;;8.75;8.75;;;;;;;;5046814;28;10810;-82
2021/09/23 02:26:49;;;;;;;;;12.00;12.00;;;;;;;;5034850;28;11445;-81
2021/09/23 02:29:16;;;;;;;;;12.50;10.50;;;;;;;;5045518;28;10930;-85
2021/09/23 02:31:44;;;;;;;;;11.75;10.00;;;;;;;;5035858;28;10811;-72
2021/09/23 02:34:12;;;;;;;;;14.00;12.25;;;;;;;;5027312;28;10791;-75
2021/09/23 02:36:39;;;;;;;;;12.00;10.00;;;;;;;;5047464;28;10855;-73
2021/09/23 02:39:07;;;;;;;;;10.00;10.00;;;;;;;;5038713;28;10875;-82
2021/09/23 02:41:34;;;;;;;;;5.00;5.00;;;;;;;;5044694;28;11147;-84
2021/09/23 02:44:02;;;;;;;;;11.00;11.00;;;;;;;;5046521;28;10770;-82
2021/09/23 02:46:31;;;;;;;;;12.50;12.50;;;;;;;;5042521;28;10878;-82
2021/09/23 02:49:00;;;;;;;;;7.50;7.50;;;;;;;;5044537;28;10777;-81
2021/09/23 02:51:27;;;;;;;;;9.25;9.25;;;;;;;;5045667;28;10797;-80
2021/09/23 02:53:55;;;;;;;;;10.50;8.00;;;;;;;;5045297;28;10771;-77
2021/09/23 02:56:22;;;;;;;;;10.00;10.00;;;;;;;;5044451;28;10814;-81
2021/09/23 02:58:50;;;;;;;;;7.25;7.25;;;;;;;;5042283;28;10765;-74
2021/09/23 03:01:18;;;;;;;;;9.00;9.00;;;;;;;;5045435;28;10830;-78
2021/09/23 03:03:45;;;;;;;;;8.00;8.00;;;;;;;;5046082;28;10822;-76
2021/09/23 03:06:14;;;;;;;;;11.00;8.25;;;;;;;;5021571;28;10856;-74
2021/09/23 03:08:42;;;;;;;;;11.25;11.25;;;;;;;;5043568;28;10872;-75
2021/09/23 03:11:09;;;;;;;;;10.00;10.00;;;;;;;;5044207;28;10771;-73
2021/09/23 03:13:37;;;;;;;;;10.75;10.75;;;;;;;;5043578;28;10706;-76
2021/09/23 03:16:06;;;;;;;;;8.50;8.50;;;;;;;;5035771;28;10804;-77
2021/09/23 03:18:34;;;;;;;;;8.50;7.75;;;;;;;;5045866;28;10834;-73
2021/09/23 03:21:03;;;;;;;;;8.50;8.50;;;;;;;;5044774;28;10854;-78
2021/09/23 03:23:31;;;;;;;;;11.50;11.50;;;;;;;;5046296;28;11526;-74
2021/09/23 03:25:59;;;;;;;;;10.25;10.25;;;;;;;;5026272;28;10825;-79
2021/09/23 03:28:26;;;;;;;;;10.25;10.25;;;;;;;;5042769;28;10781;-73
2021/09/23 03:30:53;;;;;;;;;10.00;9.50;;;;;;;;5044259;28;10646;-84
2021/09/23 03:33:21;;;;;;;;;10.00;10.00;;;;;;;;5045777;28;10816;-83
2021/09/23 03:35:48;;;;;;;;;10.00;10.00;;;;;;;;5038059;28;10818;-84
2021/09/23 03:38:15;;;;;;;;;14.50;11.00;;;;;;;;5041461;28;10885;-83
2021/09/23 03:40:45;;;;;;;;;10.25;10.25;;;;;;;;5045228;28;10791;-75
2021/09/23 03:43:12;;;;;;;;;10.75;10.75;;;;;;;;5044870;28;10803;-81
2021/09/23 03:45:40;;;;;;;;;13.75;12.25;;;;;;;;5045180;28;10991;-81
2021/09/23 03:48:07;;;;;;;;;15.75;12.00;;;;;;;;5040798;28;11686;-77
2021/09/23 03:50:34;;;;;;;;;6.25;6.25;;;;;;;;5044542;28;10860;-81
2021/09/23 03:53:02;;;;;;;;;11.75;11.75;;;;;;;;5042729;28;10757;-81
2021/09/23 03:55:29;;;;;;;;;14.50;11.50;;;;;;;;5039597;28;10746;-78
2021/09/23 03:58:00;;;;;;;;;10.25;9.75;;;;;;;;5048412;28;10801;-81
2021/09/23 04:00:27;;;;;;;;;9.50;9.50;;;;;;;;5041112;28;10702;-80
2021/09/23 04:02:55;;;;;;;;;9.50;9.50;;;;;;;;5027350;28;10758;-78
2021/09/23 04:05:22;;;;;;;;;11.50;11.50;;;;;;;;5042944;28;10726;-80
2021/09/23 04:07:49;;;;;;;;;7.25;7.00;;;;;;;;5042634;28;11444;-76
2021/09/23 04:10:18;;;;;;;;;11.50;11.50;;;;;;;;5045029;28;10839;-82
2021/09/23 04:12:45;;;;;;;;;14.00;14.00;;;;;;;;5044743;28;11922;-82
2021/09/23 04:15:14;;;;;;;;;22.50;22.50;;;;;;;;5044879;28;11190;-77
2021/09/23 04:17:41;;;;;;;;;23.75;23.75;;;;;;;;5041192;28;11472;-77
2021/09/23 04:20:09;;;;;;;;;17.00;17.00;;;;;;;;5044708;28;11460;-74
2021/09/23 04:22:37;;;;;;;;;29.25;24.25;;;;;;;;5043530;28;11458;-77
2021/09/23 04:25:04;;;;;;;;;36.00;31.75;;;;;;;;5032035;28;11598;-73
2021/09/23 04:27:32;;;;;;;;;23.75;23.75;;;;;;;;5041572;28;11499;-74
2021/09/23 04:29:59;;;;;;;;;24.50;21.75;;;;;;;;5042675;28;12350;-74
2021/09/23 04:32:28;;;;;;;;;15.75;15.75;;;;;;;;5034876;28;11397;-83
2021/09/23 04:34:55;;;;;;;;;13.50;11.50;;;;;;;;5041425;28;11821;-83
2021/09/23 04:37:23;;;;;;;;;12.00;9.50;;;;;;;;5040394;28;11213;-84
2021/09/23 04:39:50;;;;;;;;;14.75;11.00;;;;;;;;5041430;28;11031;-78
2021/09/23 04:42:18;;;;;;;;;12.25;11.50;;;;;;;;5037994;28;10865;-83
2021/09/23 04:44:45;;;;;;;;;12.00;12.00;;;;;;;;5038170;28;10732;-77
2021/09/23 04:47:13;;;;;;;;;11.50;11.00;;;;;;;;5033119;28;10808;-83
2021/09/23 04:49:44;;;;;;;;;10.50;8.00;;;;;;;;5042648;28;10749;-82
2021/09/23 04:52:11;;;;;;;;;11.75;9.75;;;;;;;;5042325;28;10706;-87
2021/09/23 04:54:38;;;;;;;;;8.50;8.50;;;;;;;;5042128;28;10775;-85
2021/09/23 04:57:06;;;;;;;;;10.25;9.75;;;;;;;;5019869;28;10956;-85
2021/09/23 04:59:33;;;;;;;;;9.50;8.25;;;;;;;;5023937;28;11718;-87
2021/09/23 05:02:00;;;;;;;;;13.75;12.75;;;;;;;;5036265;28;10799;-88
2021/09/23 05:04:27;;;;;;;;;13.00;11.00;;;;;;;;5040361;28;10744;-74
2021/09/23 05:06:56;;;;;;;;;11.75;10.00;;;;;;;;5036824;28;10856;-78
2021/09/23 05:09:23;;;;;;;;;10.50;10.50;;;;;;;;5038627;28;10918;-83
2021/09/23 05:11:51;;;;;;;;;10.50;10.50;;;;;;;;5044388;28;10896;-80
2021/09/23 05:14:18;;;;;;;;;11.00;11.00;;;;;;;;5042223;28;10927;-77
2021/09/23 05:16:45;;;;;;;;;12.25;10.00;;;;;;;;5037984;28;11667;-75
2021/09/23 05:19:13;;;;;;;;;11.25;11.00;;;;;;;;5019158;28;11690;-79
2021/09/23 05:21:41;;;;;;;;;10.50;10.50;;;;;;;;5044609;28;11088;-78
2021/09/23 05:24:12;;;;;;;;;12.25;10.00;;;;;;;;5042809;28;10827;-81
2021/09/23 05:26:40;;;;;;;;;12.00;10.00;;;;;;;;5042509;28;11032;-78
2021/09/23 05:29:07;;;;;;;;;9.75;9.75;;;;;;;;5042997;28;10984;-82
2021/09/23 05:31:35;;;;;;;;;9.75;8.50;;;;;;;;5029812;28;10992;-82
2021/09/23 05:34:03;;;;;;;;;10.50;10.50;;;;;;;;5039611;28;11108;-81
2021/09/23 05:36:30;;;;;;;;;16.50;13.00;;;;;;;;5032963;28;10998;-82
2021/09/23 05:38:59;;;;;;;;;9.50;9.50;;;;;;;;5036887;28;11220;-77
2021/09/23 05:41:27;;;;;;;;;13.50;11.00;;;;;;;;5035620;28;11917;-72
2021/09/23 05:43:55;;;;;;;;;11.75;11.75;;;;;;;;5028802;28;11185;-72
2021/09/23 05:46:22;;;;;;;;;12.00;10.50;;;;;;;;5042216;28;11192;-73
2021/09/23 05:48:49;;;;;;;;;15.00;10.75;;;;;;;;5041102;28;11212;-71
2021/09/23 05:51:16;;;;;;;;;11.50;11.00;;;;;;;;5023513;28;11217;-71
2021/09/23 05:53:44;;;;;;;;;8.50;8.50;;;;;;;;5033854;28;11062;-70
2021/09/23 05:56:11;;;;;;;;;10.25;10.25;;;;;;;;5043336;28;11192;-71
2021/09/23 05:58:39;;;;;;;;;8.00;6.75;;;;;;;;5030714;28;11476;-73
2021/09/23 06:01:07;;;;;;;;;8.50;8.00;;;;;;;;5039147;28;11086;-72
2021/09/23 06:03:34;;;;;;;;;10.00;7.75;;;;;;;;5035982;28;11089;-72
2021/09/23 06:06:01;;;;;;;;;10.50;10.50;;;;;;;;5036011;28;11224;-75
2021/09/23 06:08:28;;;;;;;;;12.00;12.00;;;;;;;;5037776;28;11111;-73
2021/09/23 06:10:56;;;;;;;;;11.50;11.50;;;;;;;;5038231;28;12091;-72
2021/09/23 06:13:23;;;;;;;;;12.00;12.00;;;;;;;;5038836;28;11562;-72
2021/09/23 06:15:51;;;;;;;;;12.00;12.00;;;;;;;;5042316;28;11158;-73
2021/09/23 06:18:18;;;;;;;;;12.00;11.00;;;;;;;;5043151;28;11028;-72
2021/09/23 06:20:47;;;;;;;;;13.50;12.25;;;;;;;;5042046;28;11097;-72
2021/09/23 06:23:15;;;;;;;;;10.75;10.75;;;;;;;;5042821;28;11112;-74
2021/09/23 06:25:42;;;;;;;;;11.25;11.25;;;;;;;;5041445;28;11057;-75
2021/09/23 06:28:10;;;;;;;;;9.00;9.00;;;;;;;;5037671;28;10945;-74
2021/09/23 06:30:38;;;;;;;;;14.25;11.75;;;;;;;;5042087;28;10884;-74
2021/09/23 06:33:07;;;;;;;;;12.25;11.00;;;;;;;;5041308;28;10969;-73
2021/09/23 06:35:35;;;;;;;;;10.00;10.00;;;;;;;;5035664;28;10948;-74
2021/09/23 06:38:02;;;;;;;;;13.50;13.50;;;;;;;;5038189;28;10687;-74
2021/09/23 06:40:29;;;;;;;;;10.25;10.25;;;;;;;;5022608;28;10801;-74
2021/09/23 06:42:56;;;;;;;;;11.50;11.50;;;;;;;;5038268;28;10683;-74
2021/09/23 06:45:24;;;;;;;;;18.50;18.50;;;;;;;;5038494;28;10729;-74
2021/09/23 06:47:51;;;;;;;;;14.50;13.50;;;;;;;;5044277;28;11099;-74
2021/09/23 06:50:20;;;;;;;;;15.25;15.25;;;;;;;;5035815;28;10820;-74
2021/09/23 06:52:47;;;;;;;;;21.75;17.00;;;;;;;;5045990;28;10892;-74
2021/09/23 06:55:14;;;;;;;;;27.75;24.75;;;;;;;;5035638;28;11295;-74
2021/09/23 06:57:41;;;;;;;;;37.25;34.50;;;;;;;;5046575;28;11471;-74
2021/09/23 07:00:09;;;;;;;;;28.00;28.00;;;;;;;;5043757;28;11448;-76
2021/09/23 07:02:37;;;;;;;;;20.25;18.75;;;;;;;;5044371;28;11438;-74
2021/09/23 07:05:05;;;;;;;;;14.75;14.25;;;;;;;;5046194;28;11288;-74
2021/09/23 07:07:33;;;;;;;;;16.00;12.75;;;;;;;;5032401;28;10876;-73
2021/09/23 07:10:01;;;;;;;;;9.75;9.75;;;;;;;;5036936;28;10719;-74
2021/09/23 07:12:29;;;;;;;;;13.25;13.25;;;;;;;;5045072;28;10547;-74
2021/09/23 07:14:56;;;;;;;;;20.25;18.75;;;;;;;;5045769;28;10267;-74
2021/09/23 07:17:23;;;;;;;;;15.25;14.00;;;;;;;;5046093;28;10609;-73
2021/09/23 07:19:50;;;;;;;;;17.75;15.00;;;;;;;;5044880;28;10345;-74
2021/09/23 07:22:18;;;;;;;;;20.75;18.75;;;;;;;;5046339;28;10350;-74
2021/09/23 07:24:47;;;;;;;;;19.25;18.00;;;;;;;;5036678;28;10447;-75
2021/09/23 07:27:14;;;;;;;;;22.75;21.75;;;;;;;;5046320;28;10354;-75
2021/09/23 07:29:42;;;;;;;;;17.75;15.00;;;;;;;;5039241;28;10354;-73
2021/09/23 07:32:10;;;;;;;;;20.25;19.25;;;;;;;;5021649;28;10226;-74
2021/09/23 07:34:37;;;;;;;;;19.75;19.50;;;;;;;;5045272;28;10366;-74
2021/09/23 07:37:05;;;;;;;;;22.50;19.75;;;;;;;;5044248;28;10193;-74
2021/09/23 07:39:33;;;;;;;;;20.75;20.75;;;;;;;;5045819;28;10187;-73
2021/09/23 07:42:02;;;;;;;;;16.25;16.25;;;;;;;;5044105;28;10206;-72
2021/09/23 07:44:30;;;;;;;;;20.50;18.75;;;;;;;;5039696;28;10062;-74
2021/09/23 07:46:59;;;;;;;;;22.75;21.00;;;;;;;;5034593;28;9930;-74
2021/09/23 07:49:27;;;;;;;;;22.00;19.25;;;;;;;;5045713;28;9973;-74
2021/09/23 07:51:54;;;;;;;;;16.00;16.00;;;;;;;;5043226;28;10000;-73
2021/09/23 07:54:21;;;;;;;;;18.00;18.00;;;;;;;;5044877;28;9866;-74
2021/09/23 07:56:48;;;;;;;;;18.00;18.00;;;;;;;;5044680;28;9737;-73
2021/09/23 07:59:17;;;;;;;;;22.00;22.00;;;;;;;;5044371;28;9955;-74
2021/09/23 08:01:44;;;;;;;;;18.50;18.50;;;;;;;;5026970;28;9727;-73
2021/09/23 08:04:11;;;;;;;;;22.25;20.25;;;;;;;;5043529;28;9747;-73
2021/09/23 08:06:40;;;;;;;;;20.67;18.00;;;;;;;;5044784;28;9543;-72
2021/09/23 08:09:07;;;;;;;;;18.00;16.67;;;;;;;;5044504;28;9505;-73
2021/09/23 08:11:35;;;;;;;;;18.67;16.00;;;;;;;;5042679;28;9398;-74
2021/09/23 08:14:02;;;;;;;;;18.33;17.00;;;;;;;;5044828;28;9405;-73
2021/09/23 08:16:30;;;;;;;;;20.00;19.00;;;;;;;;5044349;28;9317;-73
2021/09/23 08:18:58;;;;;;;;;26.67;19.00;;;;;;;;5036255;28;9222;-73
2021/09/23 08:21:27;;;;;;;;;18.00;18.00;;;;;;;;5041445;28;9085;-74
2021/09/23 08:23:54;;;;;;;;;20.33;19.00;;;;;;;;5038811;28;9097;-74
2021/09/23 08:26:23;;;;;;;;;20.67;19.00;;;;;;;;5043760;28;9142;-74
2021/09/23 08:28:51;;;;;;;;;24.33;19.67;;;;;;;;5037507;28;9115;-73
2021/09/23 08:31:19;;;;;;;;;29.33;24.67;;;;;;;;5043839;28;8876;-74
2021/09/23 08:33:48;;;;;;;;;22.00;19.00;;;;;;;;5043758;28;9041;-75
2021/09/23 08:36:15;;;;;;;;;18.25;18.25;;;;;;;;5044054;28;9092;-74
2021/09/23 08:38:43;;;;;;;;;22.00;20.00;;;;;;;;5042136;28;8872;-74
2021/09/23 08:41:11;;;;;;;;;21.00;19.50;;;;;;;;5044101;28;8958;-74
2021/09/23 08:43:38;;;;;;;;;19.50;18.00;;;;;;;;5042878;28;8892;-74
2021/09/23 08:46:06;;;;;;;;;25.00;22.25;;;;;;;;5042011;28;8852;-74
2021/09/23 08:48:34;;;;;;;;;26.25;24.50;;;;;;;;5025140;28;8847;-74
2021/09/23 08:51:04;;;;;;;;;21.25;21.25;;;;;;;;5043385;28;8895;-74
2021/09/23 08:53:33;;;;;;;;;19.75;17.50;;;;;;;;5044295;28;8848;-74
2021/09/23 08:56:00;;;;;;;;;18.75;18.75;;;;;;;;5042228;28;8880;-75
2021/09/23 08:58:27;;;;;;;;;16.00;16.00;;;;;;;;5044214;28;8864;-74
2021/09/23 09:01:05;;;;;;;;;17.75;16.50;;;;;;;;5041408;28;8808;-75
2021/09/23 09:03:33;;;;;;;;;15.25;15.25;;;;;;;;5042914;28;8864;-74
2021/09/23 09:06:05;;;;;;;;;19.25;19.25;;;;;;;;5044142;28;8888;-74
2021/09/23 09:08:35;;;;;;;;;15.75;15.75;;;;;;;;5043177;28;8875;-74
2021/09/23 09:11:04;;;;;;;;;16.75;16.25;;;;;;;;5044341;28;8901;-74
2021/09/23 09:13:35;;;;;;;;;12.25;12.25;;;;;;;;5042617;28;8891;-74
2021/09/23 09:16:08;;;;;;;;;14.75;14.75;;;;;;;;5044355;28;8895;-74
2021/09/23 09:18:36;;;;;;;;;16.25;14.00;;;;;;;;5043252;28;8936;-75
2021/09/23 09:21:09;;;;;;;;;16.50;14.25;;;;;;;;5042648;28;8859;-75
2021/09/23 09:23:42;;;;;;;;;16.25;16.25;;;;;;;;5044087;28;10813;-76
2021/09/23 09:26:10;;;;;;;;;15.50;13.25;;;;;;;;5043184;28;8922;-75
2021/09/23 09:28:48;;;;;;;;;18.25;16.25;;;;;;;;5043828;28;9756;-75
2021/09/23 09:31:16;;;;;;;;;16.25;14.50;;;;;;;;5042089;28;8835;-75
2021/09/23 09:33:45;;;;;;;;;20.75;20.75;;;;;;;;5043811;28;8860;-75
2021/09/23 09:36:29;;;;;;;;;23.25;19.75;;;;;;;;5043497;28;8856;-75
2021/09/23 09:38:59;;;;;;;;;20.75;16.50;;;;;;;;5025251;28;8864;-75
2021/09/23 09:41:27;;;;;;;;;15.00;14.75;;;;;;;;5026169;28;8898;-75
2021/09/23 09:43:56;;;;;;;;;17.00;17.00;;;;;;;;5042302;28;8899;-76
2021/09/23 09:46:29;;;;;;;;;15.50;15.25;;;;;;;;5026061;28;8878;-76
2021/09/23 09:48:56;;;;;;;;;16.75;15.00;;;;;;;;5042541;28;8872;-75
2021/09/23 09:51:36;;;;;;;;;19.00;18.25;;;;;;;;5043542;28;8914;-75
2021/09/23 09:54:04;;;;;;;;;15.25;15.25;;;;;;;;5042975;28;8827;-76
2021/09/23 09:56:31;;;;;;;;;15.00;15.00;;;;;;;;5042669;28;8856;-77
2021/09/23 09:59:17;;;;;;;;;13.40;13.40;;;;;;;;5043414;28;8855;-76
2021/09/23 10:01:46;;;;;;;;;15.80;15.80;;;;;;;;5041432;28;8804;-76
2021/09/23 10:04:14;;;;;;;;;16.60;15.40;;;;;;;;5043586;28;8882;-78
2021/09/23 10:06:44;;;;;;;;;17.80;17.80;;;;;;;;5043369;28;8851;-76
2021/09/23 10:09:13;;;;;;;;;18.20;15.80;;;;;;;;5043050;28;8894;-76
2021/09/23 10:11:43;;;;;;;;;12.40;12.40;;;;;;;;5010378;28;9257;-76
2021/09/23 10:14:12;;;;;;;;;13.40;12.60;;;;;;;;5041944;28;8871;-76
2021/09/23 10:16:40;;;;;;;;;17.40;16.00;;;;;;;;5034802;28;8892;-75
2021/09/23 10:19:08;;;;;;;;;11.00;11.00;;;;;;;;5039002;28;8856;-76
2021/09/23 10:21:43;;;;;;;;;12.80;12.80;;;;;;;;5046386;28;8872;-74
2021/09/23 10:24:13;;;;;;;;;15.80;15.20;;;;;;;;5029505;28;8856;-75
2021/09/23 10:26:43;;;;;;;;;21.00;16.60;;;;;;;;5046719;28;8890;-75
2021/09/23 10:29:11;;;;;;;;;17.80;16.60;;;;;;;;5046637;28;8882;-74
2021/09/23 10:31:39;;;;;;;;;18.00;17.40;;;;;;;;5040728;28;8822;-75
2021/09/23 10:34:09;;;;;;;;;19.00;17.20;;;;;;;;5029043;28;8879;-76
2021/09/23 10:36:38;;;;;;;;;16.20;16.20;;;;;;;;5046451;28;8880;-76
2021/09/23 10:39:07;;;;;;;;;16.60;15.20;;;;;;;;5047223;28;8962;-74
2021/09/23 10:41:39;;;;;;;;;15.80;13.60;;;;;;;;5048734;28;8862;-76
2021/09/23 10:44:07;;;;;;;;;16.40;13.40;;;;;;;;5045287;28;8886;-77
2021/09/23 10:46:35;;;;;;;;;18.00;17.20;;;;;;;;5042160;28;8986;-75
2021/09/23 10:49:03;;;;;;;;;17.40;16.60;;;;;;;;5042663;28;8860;-75
2021/09/23 10:51:33;;;;;;;;;16.00;15.00;;;;;;;;5044979;28;10008;-75
2021/09/23 10:54:01;;;;;;;;;19.60;19.60;;;;;;;;5023660;28;8870;-74
2021/09/23 10:56:29;;;;;;;;;12.60;12.60;;;;;;;;5045511;28;8859;-74
2021/09/23 10:58:58;;;;;;;;;21.80;20.40;;;;;;;;5021434;28;8883;-74
2021/09/23 11:01:28;;;;;;;;;16.20;16.20;;;;;;;;5033165;28;8831;-75
2021/09/23 11:03:56;;;;;;;;;18.00;17.20;;;;;;;;5046286;28;8921;-75
2021/09/23 11:06:32;;;;;;;;;16.60;14.80;;;;;;;;5043922;28;8883;-75
2021/09/23 11:09:02;;;;;;;;;17.40;17.00;;;;;;;;5046575;28;8976;-73
2021/09/23 11:11:29;;;;;;;;;18.00;16.40;;;;;;;;5044431;28;8940;-74
2021/09/23 11:13:58;;;;;;;;;19.20;15.00;;;;;;;;5044247;28;8890;-74
2021/09/23 11:16:25;;;;;;;;;15.20;13.80;;;;;;;;5041855;28;8840;-75
2021/09/23 11:18:53;;;;;;;;;12.00;12.00;;;;;;;;5045038;28;8848;-73
2021/09/23 11:21:21;;;;;;;;;14.40;13.20;;;;;;;;5045270;28;8873;-73
2021/09/23 11:23:49;;;;;;;;;13.80;13.80;;;;;;;;5044847;28;8870;-74
2021/09/23 11:26:16;;;;;;;;;19.80;18.60;;;;;;;;5045767;28;8879;-75
2021/09/23 11:28:44;;;;;;;;;17.80;14.80;;;;;;;;5044105;28;8894;-74
2021/09/23 11:31:13;;;;;;;;;17.80;13.00;;;;;;;;5041579;28;8790;-74
2021/09/23 11:33:42;;;;;;;;;13.00;11.00;;;;;;;;5040233;28;8913;-74
2021/09/23 11:36:12;;;;;;;;;12.00;10.20;;;;;;;;5045077;28;8856;-74
2021/09/23 11:38:39;;;;;;;;;11.80;11.20;;;;;;;;5041404;28;8875;-74
2021/09/23 11:41:06;;;;;;;;;7.80;7.40;;;;;;;;5044207;28;8876;-74
2021/09/23 11:43:33;;;;;;;;;6.40;6.40;;;;;;;;5044941;28;8863;-74
2021/09/23 11:46:01;;;;;;;;;4.40;4.40;;;;;;;;5044553;28;8868;-74
2021/09/23 11:48:34;;;;;;;;;5.20;5.20;;;;;;;;5045203;28;8891;-74
2021/09/23 11:51:03;;;;;;;;;5.00;5.00;;;;;;;;5044762;28;8856;-74
2021/09/23 11:53:33;;;;;;;;;5.60;5.60;;;;;;;;5038575;28;8860;-74
2021/09/23 11:56:03;;;;;;;;;5.20;5.20;;;;;;;;5044670;28;8868;-74
2021/09/23 11:58:33;;;;;;;;;7.00;7.00;;;;;;;;5044412;28;8863;-74
2021/09/23 12:01:00;;;;;;;;;8.60;8.60;;;;;;;;5043425;28;8804;-75
2021/09/23 12:03:29;;;;;;;;;10.80;10.80;;;;;;;;5043378;28;8856;-74
2021/09/23 12:05:58;;;;;;;;;11.80;11.80;;;;;;;;5043563;28;8856;-74
2021/09/23 12:08:26;;;;;;;;;11.60;11.60;;;;;;;;5042462;28;8856;-74
2021/09/23 12:10:55;;;;;;;;;8.60;8.60;;;;;;;;5027566;28;8868;-74
2021/09/23 12:13:30;;;;;;;;;9.20;7.60;;;;;;;;5042480;28;9626;-74
2021/09/23 12:15:59;;;;;;;;;7.00;6.00;;;;;;;;5037237;28;8846;-74
2021/09/23 12:18:29;;;;;;;;;10.00;9.60;;;;;;;;5044907;28;9727;-74
2021/09/23 12:20:58;;;;;;;;;12.00;10.40;;;;;;;;5043918;28;8878;-74
2021/09/23 12:23:31;;;;;;;;;9.60;9.60;;;;;;;;5019541;28;8894;-74
2021/09/23 12:26:12;;;;;;;;;8.40;8.00;;;;;;;;5044780;28;8878;-74
2021/09/23 12:28:42;;;;;;;;;7.80;7.80;;;;;;;;5031870;28;9686;-74
2021/09/23 12:31:11;;;;;;;;;10.00;10.00;;;;;;;;5039924;28;8800;-74
2021/09/23 12:33:52;;;;;;;;;5.40;5.20;;;;;;;;5043071;28;8859;-74
2021/09/23 12:36:20;;;;;;;;;5.00;5.00;;;;;;;;5044533;28;8859;-74
2021/09/23 12:38:48;;;;;;;;;0.60;0.60;;;;;;;;5036327;28;8868;-74
2021/09/23 12:41:19;;;;;;;;;6.40;6.40;;;;;;;;5041799;28;8855;-74
2021/09/23 12:43:46;;;;;;;;;4.80;4.80;;;;;;;;5037928;28;8868;-74
2021/09/23 12:46:14;;;;;;;;;5.40;5.40;;;;;;;;5042289;28;8883;-74
2021/09/23 12:48:42;;;;;;;;;4.00;4.00;;;;;;;;5029065;28;8849;-74
2021/09/23 12:51:11;;;;;;;;;3.20;3.20;;;;;;;;5038026;28;8843;-75
2021/09/23 12:53:39;;;;;;;;;4.00;4.00;;;;;;;;5044200;28;9683;-75
2021/09/23 12:56:07;;;;;;;;;5.20;4.40;;;;;;;;5043301;28;8843;-75
2021/09/23 12:58:35;;;;;;;;;4.00;4.00;;;;;;;;5039062;28;8866;-75
2021/09/23 13:01:19;;;;;;;;;4.40;4.40;;;;;;;;5037419;28;8813;-75
2021/09/23 13:03:46;;;;;;;;;4.40;4.40;;;;;;;;5034988;28;8867;-74
2021/09/23 13:06:14;;;;;;;;;4.00;4.00;;;;;;;;5039728;28;8867;-74
2021/09/23 13:08:43;;;;;;;;;6.60;6.60;;;;;;;;5036756;28;8890;-74
2021/09/23 13:11:14;;;;;;;;;5.00;5.00;;;;;;;;5044413;28;8907;-74
2021/09/23 13:13:43;;;;;;;;;3.80;3.80;;;;;;;;5042806;28;8848;-74
2021/09/23 13:16:11;;;;;;;;;5.60;5.60;;;;;;;;5043647;28;8880;-74
2021/09/23 13:18:38;;;;;;;;;3.60;3.60;;;;;;;;5038114;28;8980;-75
2021/09/23 13:21:07;;;;;;;;;0.80;0.80;;;;;;;;5041962;28;9014;-74
2021/09/23 13:23:40;;;;;;;;;4.00;4.00;;;;;;;;5032880;28;8874;-74
2021/09/23 13:26:08;;;;;;;;;3.20;3.20;;;;;;;;5032317;28;8860;-75
2021/09/23 13:28:39;;;;;;;;;4.60;3.60;;;;;;;;5035269;28;8892;-74
2021/09/23 13:31:09;;;;;;;;;3.40;3.40;;;;;;;;5043100;28;8895;-74
2021/09/23 13:33:37;;;;;;;;;2.80;2.80;;;;;;;;5031212;28;9843;-74
2021/09/23 13:36:06;;;;;;;;;3.00;2.60;;;;;;;;5043700;28;8860;-74
2021/09/23 13:38:36;;;;;;;;;2.00;2.00;;;;;;;;5042621;28;8856;-74
2021/09/23 13:41:05;;;;;;;;;2.40;2.40;;;;;;;;5035711;28;8892;-74
2021/09/23 13:43:32;;;;;;;;;4.40;4.40;;;;;;;;5042286;28;8912;-74
2021/09/23 13:45:59;;;;;;;;;2.80;2.80;;;;;;;;5043687;28;8884;-74
2021/09/23 13:48:29;;;;;;;;;2.60;2.40;;;;;;;;5042892;28;9635;-74
2021/09/23 13:50:57;;;;;;;;;3.00;3.00;;;;;;;;5042143;28;8994;-74
2021/09/23 13:53:25;;;;;;;;;2.00;2.00;;;;;;;;5026239;28;8884;-74
2021/09/23 13:55:53;;;;;;;;;3.40;3.40;;;;;;;;5037709;28;8863;-74
2021/09/23 13:58:22;;;;;;;;;2.80;2.80;;;;;;;;5046170;28;8871;-74
2021/09/23 14:00:49;;;;;;;;;3.00;1.20;;;;;;;;5044972;28;8788;-74
2021/09/23 14:03:18;;;;;;;;;2.00;2.00;;;;;;;;5045618;28;8887;-74
2021/09/23 14:05:45;;;;;;;;;2.60;2.60;;;;;;;;5046444;28;8981;-74
2021/09/23 14:08:13;;;;;;;;;2.40;2.00;;;;;;;;5046689;28;8864;-74
2021/09/23 14:10:40;;;;;;;;;1.80;1.80;;;;;;;;5047884;28;8852;-75
2021/09/23 14:13:09;;;;;;;;;1.60;1.60;;;;;;;;5045228;28;8859;-76
2021/09/23 14:15:36;;;;;;;;;2.80;2.80;;;;;;;;5044201;28;8882;-74
2021/09/23 14:18:03;;;;;;;;;2.00;2.00;;;;;;;;5045414;28;9724;-74
2021/09/23 14:20:31;;;;;;;;;3.40;3.00;;;;;;;;5046003;28;8855;-74
2021/09/23 14:22:58;;;;;;;;;1.00;1.00;;;;;;;;5027868;28;8887;-74
2021/09/23 14:25:25;;;;;;;;;3.20;1.40;;;;;;;;5046121;28;8890;-74
2021/09/23 14:27:53;;;;;;;;;1.60;1.60;;;;;;;;5047579;28;8909;-74
2021/09/23 14:30:21;;;;;;;;;2.60;2.60;;;;;;;;5029580;28;8881;-74
2021/09/23 14:32:48;;;;;;;;;3.00;2.40;;;;;;;;5038861;28;8979;-74
2021/09/23 14:35:16;;;;;;;;;2.80;1.00;;;;;;;;5044070;28;8897;-74
2021/09/23 14:37:44;;;;;;;;;3.00;3.00;;;;;;;;5043649;28;8860;-73